• Join FlightAware (Why Join?)
  • Login
  • US Flag 
02:52PM EDT


 

Airport Tracker/Info


-or-


 

Live Flight TrackerFlight Track Log ✈ NKS311 ✈ 14-May-2013 ✈ KACY - KMCO

Flight Track Log - Related Links

Times and Time Zones

All times are in EDT time to prevent confusion due to time zone crossing. See the NKS311 flight status page for this flight to view local times or setup timezone preferences in your user account.

Time Position Orientation Groundspeed Altitude Reporting Facility
EDT Latitude Longitude Course Direction KTS MPH feet Rate Location/Type
07:29AM 39.4710 -74.6140 288° West 164 189 1,500  Level FlightAware
07:29AM 39.4742 -74.6239 293° West 175 201 1,700 1,140 Climbing FlightAware ADS-B
07:29AM 39.4756 -74.6385 277° West 198 228 1,900 660 Climbing FlightAware ADS-B
07:29AM 39.4743 -74.6449 255° West 206 237 1,900 600 Level FlightAware ADS-B
07:29AM 39.4715 -74.6517 242° Southwest 225 259 2,000 1,500 Climbing FlightAware ADS-B
07:29AM 39.4667 -74.6589 229° Southwest 242 278 2,200 1,500 Climbing FlightAware ADS-B
07:29AM 39.4629 -74.6636 224° Southwest 251 289 2,300 1,980 Climbing FlightAware ADS-B
07:30AM 39.4564 -74.6700 217° Southwest 258 297 2,600 2,520 Climbing FlightAware ADS-B
07:30AM 39.4487 -74.6764 213° Southwest 265 305 2,900 3,180 Climbing FlightAware ADS-B
07:30AM 39.4426 -74.6810 210° Southwest 266 306 3,300 4,260 Climbing FlightAware ADS-B
07:30AM 39.4264 -74.6922 208° Southwest 260 299 4,400 4,320 Climbing FlightAware ADS-B
07:30AM 39.4070 -74.7060 209° Southwest 256 295 5,700 3,420 Climbing FlightAware ADS-B
07:31AM 39.3900 -74.7191 211° Southwest 268 308 6,400 2,820 Climbing FlightAware ADS-B
07:31AM 39.3721 -74.7338 212° Southwest 274 315 7,300 3,060 Climbing FlightAware ADS-B
07:31AM 39.3527 -74.7503 213° Southwest 281 323 8,200 2,880 Climbing FlightAware ADS-B
07:31AM 39.3365 -74.7644 214° Southwest 287 330 8,900 3,180 Climbing FlightAware ADS-B
07:32AM 39.3194 -74.7792 214° Southwest 289 333 9,800 2,340 Climbing FlightAware ADS-B
07:32AM 39.2818 -74.8115 214° Southwest 313 360 10,800 1,680 Climbing FlightAware ADS-B
07:33AM 39.2410 -74.8465 214° Southwest 349 402 11,600 2,040 Climbing FlightAware ADS-B
07:33AM 39.1992 -74.8819 213° Southwest 356 410 12,900 2,460 Climbing FlightAware ADS-B
07:34AM 39.1549 -74.9196 213° Southwest 364 419 14,200 2,460 Climbing FlightAware ADS-B
07:34AM 39.1112 -74.9566 213° Southwest 367 422 15,500 2,100 Climbing FlightAware ADS-B
07:35AM 39.0667 -74.9945 213° Southwest 383 441 16,400 1,620 Climbing FlightAware ADS-B
07:35AM 39.0207 -75.0334 213° Southwest 398 458 17,200 1,320 Climbing FlightAware ADS-B
07:36AM 38.9726 -75.0742 213° Southwest 419 482 17,800 1,620 Climbing FlightAware ADS-B
07:36AM 38.9227 -75.1162 213° Southwest 423 487 18,900 2,220 Climbing FlightAware ADS-B
07:37AM 38.8704 -75.1600 213° Southwest 425 489 20,100 1,980 Climbing FlightAware ADS-B
07:37AM 38.8162 -75.2050 213° Southwest 427 491 21,100 1,860 Climbing FlightAware ADS-B
07:38AM 38.8020 -75.2156 210° Southwest 435 501 21,400 1,620 Climbing FlightAware ADS-B
07:38AM 38.7444 -75.2535 207° Southwest 445 512 22,200 1,560 Climbing FlightAware ADS-B
07:39AM 38.6863 -75.2910 207° Southwest 450 518 23,100 1,200 Climbing FlightAware ADS-B
07:39AM 38.6288 -75.3282 207° Southwest 463 533 23,500 960 Climbing FlightAware ADS-B
07:40AM 38.5720 -75.3650 207° Southwest 471 542 24,100 1,320 Climbing FlightAware
07:40AM 38.4980 -75.4130 207° Southwest 475 547 25,100 1,440 Climbing FlightAware
07:41AM 38.4060 -75.4710 206° Southwest 478 550 26,200 1,500 Climbing FlightAware
07:41AM 38.3553 -75.5058 208° Southwest 478 550 26,800 1,560 Climbing FlightAware ADS-B
07:42AM 38.3136 -75.5401 213° Southwest 471 542 27,400 1,320 Climbing FlightAware ADS-B
07:42AM 38.2598 -75.5908 217° Southwest 473 544 28,000 1,080 Climbing FlightAware ADS-B
07:43AM 38.2060 -75.6418 217° Southwest 477 549 28,500 1,020 Climbing FlightAware ADS-B
07:43AM 38.1482 -75.6962 217° Southwest 480 552 29,100 1,200 Climbing FlightAware ADS-B
07:44AM 38.0906 -75.7502 216° Southwest 481 554 29,800 1,140 Climbing FlightAware ADS-B
07:44AM 38.0367 -75.8008 216° Southwest 482 555 30,300 1,200 Climbing FlightAware ADS-B
07:45AM 37.9644 -75.8683 216° Southwest 483 556 31,200 1,080 Climbing FlightAware ADS-B
07:46AM 37.8830 -75.9440 216° Southwest 476 548 32,000 780 Climbing FlightAware
07:47AM 37.8120 -76.0110 217° Southwest 480 552 32,500 660 Climbing FlightAware
07:47AM 37.7320 -76.0850 216° Southwest 482 555 32,900 660 Climbing FlightAware
07:48AM 37.6898 -76.1240 216° Southwest 495 570 33,200 840 Climbing FlightAware ADS-B
07:48AM 37.6216 -76.1870 216° Southwest 496 571 33,700 900 Climbing FlightAware ADS-B
07:49AM 37.5623 -76.2415 216° Southwest 496 571 34,300 960 Climbing FlightAware ADS-B
07:49AM 37.4998 -76.2990 216° Southwest 495 570 34,800 780 Climbing FlightAware ADS-B
07:50AM 37.4402 -76.3538 216° Southwest 498 573 35,200 1,020 Climbing FlightAware ADS-B
07:50AM 37.3875 -76.4020 216° Southwest 492 566 35,900 780 Climbing FlightAware ADS-B
07:51AM 37.3330 -76.4520 216° Southwest 483 556 36,000 180 Climbing FlightAware
07:51AM 37.3241 -76.4601 216° Southwest 482 555 36,000  Level FlightAware ADS-B
07:52AM 37.2600 -76.5190 216° Southwest 488 562 36,000  Level FlightAware
07:52AM 37.1870 -76.5860 216° Southwest 492 566 36,000  Level FlightAware
07:53AM 37.1040 -76.6600 215° Southwest 498 573 36,000  Level FlightAware
07:54AM 37.0230 -76.7180 210° Southwest 510 587 36,000  Level FlightAware
07:54AM 36.9370 -76.7630 203° Southwest 519 597 36,000  Level FlightAware
07:55AM 36.8340 -76.8000 196° South 526 605 36,000  Level FlightAware
07:56AM 36.7310 -76.8190 188° South 531 611 36,000  Level FlightAware
07:56AM 36.6520 -76.8300 186° South 529 609 36,000  Level FlightAware
07:57AM 36.5600 -76.8440 187° South 521 600 36,000  Level FlightAware
07:58AM 36.3520 -76.8840 189° South 522 601 36,000  Level FlightAware
07:59AM 36.2710 -76.9030 191° South 522 601 36,000  Level FlightAware
08:00AM 36.1710 -76.9270 191° South 522 601 36,000  Level FlightAware
08:01AM 36.0900 -76.9470 191° South 522 601 36,000  Level FlightAware
08:01AM 36.0130 -77.1060 239° Southwest 492 566 36,000  Level FlightAware
08:02AM 35.9590 -77.1590 218° Southwest 492 566 36,000  Level FlightAware
08:03AM 35.8660 -77.2510 219° Southwest 494 568 36,000  Level FlightAware
08:03AM 35.8000 -77.3160 219° Southwest 494 568 36,000  Level FlightAware
08:04AM 35.7220 -77.3930 219° Southwest 495 570 36,000  Level FlightAware
08:04AM 36.9910 -76.7370 22° Northeast 518 596 36,000  Level FlightAware
08:05AM 35.6480 -77.4650 204° Southwest 494 568 36,000  Level FlightAware
08:05AM 35.5660 -77.5440 218° Southwest 494 568 36,000  Level FlightAware
08:06AM 35.4960 -77.6130 219° Southwest 493 567 36,000  Level FlightAware
08:07AM 35.4130 -77.6930 218° Southwest 494 568 36,000  Level FlightAware
08:07AM 35.3500 -77.7540 218° Southwest 494 568 36,000  Level FlightAware
08:08AM 35.2880 -77.8130 218° Southwest 494 568 36,000  Level FlightAware
08:09AM 35.2270 -77.8710 218° Southwest 494 568 36,000  Level FlightAware
08:09AM 35.1660 -77.9300 218° Southwest 494 568 36,000  Level FlightAware
08:10AM 35.0890 -78.0030 218° Southwest 494 568 36,000  Level FlightAware
08:13AM 34.7820 -78.2980 218° Southwest 494 568 36,000  Level FlightAware
08:13AM 34.7200 -78.3560 218° Southwest 493 567 36,000  Level FlightAware
08:14AM 34.5930 -78.4770 218° Southwest 492 566 36,000  Level FlightAware
08:15AM 34.5320 -78.5340 218° Southwest 492 566 36,000  Level FlightAware
08:16AM 34.4390 -78.6200 217° Southwest 491 565 36,000  Level FlightAware
08:16AM 34.3740 -78.6830 219° Southwest 490 564 36,000  Level FlightAware
08:17AM 34.3020 -78.7490 217° Southwest 490 564 36,000  Level FlightAware
08:18AM 34.2070 -78.8390 218° Southwest 489 563 36,000  Level FlightAware
08:19AM 34.1350 -78.9050 217° Southwest 489 563 36,000  Level FlightAware
08:19AM 34.0540 -78.9800 218° Southwest 489 563 36,000  Level FlightAware
08:20AM 33.9830 -79.0460 218° Southwest 489 563 36,000  Level FlightAware
08:21AM 33.9050 -79.1180 217° Southwest 488 562 36,000  Level FlightAware
08:21AM 33.8320 -79.1860 218° Southwest 487 560 36,000  Level FlightAware
08:22AM 33.7530 -79.2580 217° Southwest 487 560 36,000  Level FlightAware
08:23AM 33.6780 -79.3270 217° Southwest 487 560 36,000  Level FlightAware
08:24AM 33.6010 -79.3980 218° Southwest 487 560 36,000  Level FlightAware
08:24AM 33.5280 -79.4650 217° Southwest 485 558 36,000  Level FlightAware
08:25AM 33.4570 -79.5290 217° Southwest 485 558 36,000  Level FlightAware
08:26AM 33.3750 -79.6040 217° Southwest 485 558 36,000  Level FlightAware
08:26AM 33.3030 -79.6690 217° Southwest 485 558 36,000  Level FlightAware
08:27AM 33.2230 -79.7420 217° Southwest 482 555 36,000  Level FlightAware
08:28AM 33.1530 -79.8050 217° Southwest 481 554 36,000  Level FlightAware
08:28AM 33.0720 -79.8780 217° Southwest 483 556 36,000  Level FlightAware
08:29AM 33.0000 -79.9430 217° Southwest 484 557 36,000  Level FlightAware
08:30AM 32.9290 -80.0060 217° Southwest 484 557 36,000  Level FlightAware
08:31AM 32.8460 -80.0740 215° Southwest 490 564 36,000  Level FlightAware
08:31AM 32.7740 -80.1260 211° Southwest 490 564 36,000  Level FlightAware
08:32AM 32.6820 -80.1940 212° Southwest 491 565 36,000  Level FlightAware
08:33AM 32.6040 -80.2520 212° Southwest 490 564 36,000  Level FlightAware
08:33AM 32.5270 -80.3080 212° Southwest 488 562 36,000  Level FlightAware
08:34AM 32.4450 -80.3690 212° Southwest 486 559 36,000 -120 Level FlightAware
08:35AM 32.3650 -80.4270 211° Southwest 487 560 35,900  Descending FlightAware
08:35AM 32.2880 -80.4830 212° Southwest 488 562 36,000  Climbing FlightAware
08:36AM 32.2030 -80.5450 212° Southwest 489 563 35,900  Descending FlightAware
08:37AM 32.1250 -80.6020 212° Southwest 491 565 36,000 60 Climbing FlightAware
08:38AM 32.0370 -80.6660 212° Southwest 491 565 36,000  Level FlightAware
08:38AM 31.9610 -80.7110 207° Southwest 500 575 36,000  Level FlightAware
08:39AM 31.8750 -80.7390 195° South 499 574 36,000  Level FlightAware
08:40AM 31.7870 -80.7690 196° South 496 571 36,000  Level FlightAware
08:40AM 31.7050 -80.7970 196° South 496 571 36,000  Level FlightAware
08:41AM 31.5880 -80.8360 196° South 496 571 36,000  Level FlightAware
08:42AM 31.5100 -80.8630 196° South 496 571 36,000  Level FlightAware
08:43AM 31.4350 -80.8880 196° South 496 571 36,000  Level FlightAware
08:43AM 31.2960 -80.9340 196° South 498 573 36,000  Level FlightAware
08:44AM 31.2080 -80.9640 196° South 498 573 36,000  Level FlightAware
08:45AM 31.1320 -80.9890 196° South 498 573 36,000  Level FlightAware
08:45AM 31.0570 -81.0140 196° South 498 573 36,000  Level FlightAware
08:46AM 30.9820 -81.0400 197° South 498 573 36,000  Level FlightAware
08:47AM 30.8880 -81.0710 196° South 498 573 36,000  Level FlightAware
08:48AM 30.8120 -81.0960 196° South 498 573 36,000  Level FlightAware
08:48AM 30.7370 -81.1210 196° South 498 573 36,000  Level FlightAware
08:49AM 30.6620 -81.1460 196° South 498 573 36,000 -1,200 Level FlightAware
08:49AM 30.5100 -81.1490 181° South 34,000 -2,040 Descending FlightAware
08:50AM 30.4130 -81.1450 178° South 490 564 34,000 -240 Level FlightAware
08:51AM 30.3140 -81.1430 179° South 490 564 33,700 -720 Descending FlightAware
08:51AM 30.2150 -81.1400 178° South 490 564 33,000 -1,200 Descending FlightAware
08:52AM 30.1210 -81.1370 178° South 484 557 32,000 -1,500 Descending FlightAware
08:53AM 30.0350 -81.1340 178° South 479 551 31,000 -900 Descending FlightAware
08:53AM 29.9510 -81.1310 178° South 477 549 30,800 -1,920 Descending FlightAware
08:54AM 30.0190 -81.1340 358° North 468 539 28,500 -1,740 Descending FlightAware
08:55AM 29.9320 -81.1320 179° South 468 539 28,500 -1,320 Level FlightAware
08:56AM 29.9700 -81.1320 360° North 447 514 26,000 -1,380 Descending FlightAware
08:57AM 29.8990 -81.1290 178° South 447 514 26,000  Level FlightAware
08:57AM 29.8110 -81.1250 178° South 447 514 26,000  Level FlightAware
08:58AM 29.7410 -81.1230 179° South 447 514 26,000  Level FlightAware
08:59AM 29.6710 -81.1200 178° South 447 514 26,000 -6,900 Level FlightAware
08:59AM 29.1900 -81.1040 178° South 455 524 16,800 -7,560 Descending FlightAware
09:00AM 29.0980 -81.0950 175° South 452 520 15,300 -1,080 Descending FlightAware
09:01AM 29.0270 -81.0880 175° South 452 520 15,300 -2,700 Level FlightAware
09:01AM 28.9420 -81.0760 173° South 361 415 11,700 -2,700 Descending FlightAware
09:02AM 28.8770 -81.0660 172° South 360 414 11,700 -300 Level FlightAware
09:03AM 28.7980 -81.0760 186° South 330 380 11,300 -600 Descending FlightAware
09:04AM 28.7440 -81.0990 200° South 296 341 10,800 -1,200 Descending FlightAware
09:04AM 28.6840 -81.1250 201° Southwest 294 338 9,600 -1,680 Descending FlightAware
09:05AM 28.6510 -81.1390 200° South 297 342 8,900 -1,020 Descending FlightAware
09:05AM 28.6130 -81.1550 200° South 273 314 8,700 -300 Descending FlightAware
09:06AM 28.5960 -81.1620 200° South 260 299 8,700  Level FlightAware
09:06AM 28.5670 -81.1750 201° Southwest 255 293 8,700  Level FlightAware
09:06AM 28.5340 -81.1870 198° South 258 297 8,700 -300 Level FlightAware
09:07AM 28.4860 -81.1870 180° South 256 295 8,400 -780 Descending FlightAware
09:08AM 28.4530 -81.1870 180° South 246 283 7,800 -1,320 Descending FlightAware
09:08AM 28.4260 -81.1870 180° South 242 278 7,200 -1,740 Descending FlightAware
09:08AM 28.4120 -81.1870 180° South 244 281 6,800 -1,740 Descending FlightAware
09:09AM 28.3710 -81.1870 180° South 241 277 5,900 -1,140 Descending FlightAware
09:09AM 28.3300 -81.1870 180° South 210 242 5,400 -900 Descending FlightAware
09:10AM 28.3040 -81.1930 191° South 181 208 4,900 -1,380 Descending FlightAware
09:10AM 28.2970 -81.2050 236° Southwest 183 211 4,400 -2,100 Descending FlightAware
09:11AM 28.2940 -81.2280 262° West 196 226 3,500 -2,100 Descending FlightAware
09:11AM 28.2910 -81.2610 264° West 200 230 2,500 -1,800 Descending FlightAware
09:12AM 28.3040 -81.2800 308° West 174 200 1,900 -1,380 Descending FlightAware
09:12AM 28.3160 -81.2810 356° North 166 191 1,600 -840 Descending FlightAware
09:12AM 28.3390 -81.2810 360° North 150 173 1,300 -540 Descending FlightAware
09:13AM 28.3480 -81.2820 354° North 132 152 1,200 -600 Descending FlightAware
09:13AM 28.3650 -81.2820 360° North 127 146 900 -780 Descending FlightAware
09:13AM 28.3820 -81.2820 360° North 129 148 500 -660 Descending FlightAware
09:14AM 28.3980 -81.2820 360° North 130 150 300 -480 Descending FlightAware
09:14AM 28.4160 -81.2820 360° North 131 151 -600 Descending FlightAware